createdAt,value
2022-09-26T00:01:43.812Z,21.45
2022-09-26T00:04:23.260Z,20.60
2022-09-26T00:06:53.257Z,19.27
2022-09-26T00:09:21.861Z,21.85
2022-09-26T00:11:52.682Z,21.13
2022-09-26T00:14:28.153Z,19.40
2022-09-26T00:16:56.823Z,21.02
2022-09-26T00:19:24.619Z,21.25
2022-09-26T00:21:51.675Z,22.42
2022-09-26T00:24:22.093Z,21.02
2022-09-26T00:26:49.110Z,19.23
2022-09-26T00:29:16.833Z,19.48
2022-09-26T00:31:46.352Z,20.67
2022-09-26T00:34:18.989Z,21.90
2022-09-26T00:36:48.258Z,26.85
2022-09-26T00:39:17.966Z,17.73
2022-09-26T00:41:51.401Z,20.83
2022-09-26T00:44:54.644Z,22.33
2022-09-26T00:47:41.466Z,24.35
2022-09-26T00:50:18.288Z,24.73
2022-09-26T00:52:56.194Z,20.30
2022-09-26T00:55:30.199Z,24.42
2022-09-26T00:58:04.534Z,27.35
2022-09-26T01:00:31.875Z,27.40
2022-09-26T01:02:59.007Z,25.55
2022-09-26T01:05:26.458Z,21.67
2022-09-26T01:07:58.152Z,22.08
2022-09-26T01:10:28.789Z,23.38
2022-09-26T01:12:59.477Z,27.52
2022-09-26T01:15:27.141Z,24.95
2022-09-26T01:18:34.332Z,27.90
2022-09-26T01:21:35.899Z,27.73
2022-09-26T01:24:51.437Z,26.70
2022-09-26T01:28:02.282Z,27.92
2022-09-26T01:30:47.951Z,26.08
2022-09-26T01:33:52.866Z,25.50
2022-09-26T01:36:46.790Z,28.63
2022-09-26T01:39:34.994Z,27.85
2022-09-26T01:42:37.410Z,27.80
2022-09-26T01:50:08.081Z,23.67
2022-09-26T01:52:37.054Z,21.48
2022-09-26T01:55:20.332Z,20.98
2022-09-26T01:58:14.889Z,18.02
2022-09-26T02:00:46.856Z,21.00
2022-09-26T02:03:21.107Z,15.68
2022-09-26T02:06:20.288Z,19.73
2022-09-26T02:10:37.060Z,17.88
2022-09-26T02:12:54.934Z,15.65
2022-09-26T02:15:26.812Z,16.65
2022-09-26T02:18:21.175Z,16.08
2022-09-26T02:21:00.493Z,13.95
2022-09-26T02:23:27.601Z,13.82
2022-09-26T02:25:54.911Z,10.80
2022-09-26T02:28:22.010Z,11.20
2022-09-26T02:30:52.566Z,11.80
2022-09-26T02:33:19.860Z,11.60
2022-09-26T02:35:54.225Z,13.63
2022-09-26T02:38:37.192Z,11.57
2022-09-26T02:44:29.055Z,12.30
2022-09-26T02:47:26.358Z,14.65
2022-09-26T02:50:33.329Z,10.43
2022-09-26T02:53:38.376Z,9.20
2022-09-26T02:56:30.065Z,8.20
2022-09-26T02:59:13.686Z,13.05
2022-09-26T03:02:04.488Z,12.05
2022-09-26T03:05:20.415Z,9.52
2022-09-26T03:08:11.684Z,14.55
2022-09-26T03:10:42.005Z,13.40
2022-09-26T03:13:14.589Z,15.65
2022-09-26T03:15:56.955Z,14.05
2022-09-26T03:18:35.563Z,16.20
2022-09-26T03:21:03.095Z,14.25
2022-09-26T03:23:30.631Z,15.88
2022-09-26T03:26:10.193Z,15.70
2022-09-26T03:28:42.969Z,13.25
2022-09-26T03:31:11.419Z,7.80
2022-09-26T03:33:58.755Z,13.38
2022-09-26T03:36:26.456Z,7.72
2022-09-26T03:38:53.457Z,8.90
2022-09-26T03:41:39.166Z,13.55
2022-09-26T03:44:12.858Z,9.43
2022-09-26T03:47:12.720Z,12.38
2022-09-26T03:49:43.020Z,10.40
2022-09-26T03:52:13.412Z,11.27
2022-09-26T03:54:42.449Z,9.73
2022-09-26T03:57:13.173Z,15.23
2022-09-26T03:59:50.170Z,14.25
2022-09-26T04:02:19.964Z,13.95
2022-09-26T04:04:51.811Z,14.05
2022-09-26T04:07:18.822Z,13.93
2022-09-26T04:09:46.685Z,13.52
2022-09-26T04:12:13.735Z,14.02
2022-09-26T04:14:44.257Z,14.88
2022-09-26T04:17:12.046Z,18.63
2022-09-26T04:19:42.966Z,20.70
2022-09-26T04:22:10.213Z,19.40
2022-09-26T04:24:47.689Z,17.92
2022-09-26T04:30:16.894Z,19.20
2022-09-26T04:33:04.817Z,26.43
2022-09-26T04:35:32.324Z,24.92
2022-09-26T04:37:59.832Z,22.10
2022-09-26T04:40:27.473Z,21.35
2022-09-26T04:43:14.936Z,23.27
2022-09-26T04:45:43.723Z,20.27
2022-09-26T04:48:12.408Z,17.92
2022-09-26T04:51:09.550Z,19.13
2022-09-26T04:54:28.060Z,23.42
2022-09-26T04:56:55.262Z,20.52
2022-09-26T04:59:22.745Z,23.13
2022-09-26T05:01:57.572Z,22.67
2022-09-26T05:04:33.525Z,20.42
2022-09-26T05:07:00.799Z,18.08
2022-09-26T05:09:35.558Z,18.17
2022-09-26T05:12:09.801Z,21.15
2022-09-26T05:17:59.984Z,19.27
2022-09-26T05:24:08.223Z,21.90
2022-09-26T05:27:17.275Z,21.88
2022-09-26T05:29:55.061Z,23.40
2022-09-26T05:32:25.642Z,20.40
2022-09-26T05:35:12.775Z,21.35
2022-09-26T05:38:17.435Z,20.77
2022-09-26T05:41:25.959Z,21.50
2022-09-26T05:44:11.281Z,20.80
2022-09-26T05:49:58.349Z,19.75
2022-09-26T05:52:32.457Z,21.58
2022-09-26T05:55:00.114Z,18.45
2022-09-26T05:57:56.935Z,18.27
2022-09-26T06:00:27.743Z,26.08
2022-09-26T06:03:04.047Z,16.48
2022-09-26T06:05:39.058Z,20.05
2022-09-26T06:08:13.145Z,18.30
2022-09-26T06:10:45.662Z,16.02
2022-09-26T06:13:15.407Z,11.50
2022-09-26T06:15:57.781Z,11.20
2022-09-26T06:18:28.870Z,10.85
2022-09-26T06:23:35.607Z,11.50
2022-09-26T06:26:10.532Z,11.68
2022-09-26T06:28:39.770Z,8.90
2022-09-26T06:31:30.077Z,10.52
2022-09-26T06:34:23.595Z,14.25
2022-09-26T06:37:10.526Z,12.90
2022-09-26T06:39:40.361Z,12.05
2022-09-26T06:42:13.215Z,12.77
2022-09-26T06:44:55.207Z,14.82
2022-09-26T06:47:25.271Z,14.35
2022-09-26T06:50:11.238Z,12.95
2022-09-26T06:52:44.087Z,17.02
2022-09-26T06:55:12.478Z,17.83
2022-09-26T06:57:43.813Z,13.15
2022-09-26T07:00:16.009Z,11.93
2022-09-26T07:03:05.783Z,12.20
2022-09-26T07:06:03.469Z,14.65
2022-09-26T07:09:00.277Z,11.93
2022-09-26T07:11:38.259Z,13.63
2022-09-26T07:14:16.946Z,13.68
2022-09-26T07:16:53.876Z,13.32
2022-09-26T07:19:38.351Z,15.23
2022-09-26T07:22:15.453Z,12.02
2022-09-26T07:24:50.714Z,13.52
2022-09-26T07:27:18.830Z,13.82
2022-09-26T07:29:47.625Z,14.57
2022-09-26T07:32:16.201Z,15.93
2022-09-26T07:34:53.196Z,13.25
2022-09-26T07:37:20.321Z,15.23
2022-09-26T07:39:52.653Z,16.23
2022-09-26T07:42:22.111Z,15.77
2022-09-26T07:45:20.998Z,13.23
2022-09-26T07:47:56.922Z,13.13
2022-09-26T07:50:42.977Z,14.20
2022-09-26T07:53:22.133Z,15.50
2022-09-26T07:56:11.376Z,15.80
2022-09-26T07:58:59.672Z,13.95
2022-09-26T08:01:54.902Z,15.73
2022-09-26T08:04:37.224Z,17.27
2022-09-26T08:07:04.361Z,16.20
2022-09-26T08:09:36.514Z,15.75
2022-09-26T08:12:22.357Z,12.57
2022-09-26T08:15:20.300Z,20.35
2022-09-26T08:17:47.375Z,11.48
2022-09-26T08:20:14.383Z,14.27
2022-09-26T08:22:41.490Z,11.15
2022-09-26T08:25:11.975Z,13.52
2022-09-26T08:27:53.172Z,15.60
2022-09-26T08:30:22.171Z,14.57
2022-09-26T08:32:59.097Z,10.90
2022-09-26T08:35:42.152Z,11.23
2022-09-26T08:41:53.935Z,15.65
2022-09-26T08:46:26.274Z,13.63
2022-09-26T08:50:17.266Z,9.60
2022-09-26T08:53:18.902Z,16.70
2022-09-26T08:55:55.696Z,8.43
2022-09-26T08:58:44.630Z,12.25
2022-09-26T09:01:24.706Z,6.78
2022-09-26T09:04:53.793Z,6.63
2022-09-26T09:07:25.773Z,6.97
2022-09-26T09:10:01.719Z,6.72
2022-09-26T09:13:58.053Z,6.03
2022-09-26T09:17:32.433Z,8.57
2022-09-26T09:33:20.153Z,5.78
2022-09-26T09:36:14.023Z,2.67
2022-09-26T09:39:33.164Z,10.77
2022-09-26T09:42:23.608Z,8.55
2022-09-26T09:45:26.504Z,7.32
2022-09-26T09:48:00.855Z,5.68
2022-09-26T09:51:13.270Z,5.20
2022-09-26T09:54:17.006Z,3.10
2022-09-26T09:57:26.522Z,2.95
2022-09-26T10:00:17.600Z,6.50
2022-09-26T10:03:04.727Z,1.70
2022-09-26T10:05:45.447Z,5.45
2022-09-26T10:08:29.582Z,3.92
2022-09-26T10:11:26.070Z,4.28
2022-09-26T10:14:03.466Z,5.30
2022-09-26T10:17:11.202Z,2.35
2022-09-26T10:22:44.174Z,6.65
2022-09-26T10:26:12.521Z,3.78
2022-09-26T10:43:34.560Z,2.92
2022-09-26T10:46:14.244Z,3.72
2022-09-26T10:49:08.264Z,5.88
2022-09-26T10:52:25.665Z,4.00
2022-09-26T10:55:16.956Z,6.13
2022-09-26T10:57:55.113Z,1.30
2022-09-26T11:00:39.207Z,3.00
2022-09-26T11:13:23.282Z,4.88
2022-09-26T11:18:07.040Z,3.08
2022-09-26T11:21:18.299Z,2.80
2022-09-26T11:38:15.164Z,2.80
2022-09-26T11:45:55.763Z,1.77
2022-09-26T11:57:53.963Z,6.03
2022-09-26T12:17:05.305Z,1.48
2022-09-26T12:20:21.607Z,4.03
2022-09-26T12:28:27.493Z,2.20
2022-09-26T12:36:42.813Z,3.67
2022-09-26T12:39:29.346Z,3.03
2022-09-26T12:42:16.809Z,3.85
2022-09-26T12:45:17.342Z,4.88
2022-09-26T12:48:16.577Z,2.47
2022-09-26T12:50:56.996Z,2.17
2022-09-26T12:54:16.799Z,1.45
2022-09-26T12:57:05.896Z,1.02
2022-09-26T13:00:09.359Z,1.80
2022-09-26T13:03:09.769Z,1.23
2022-09-26T13:06:49.098Z,1.98
2022-09-26T13:10:13.920Z,3.38
2022-09-26T13:13:35.989Z,1.90
2022-09-26T13:16:49.389Z,4.10
2022-09-26T13:19:29.848Z,2.58
2022-09-26T13:22:03.825Z,0.30
2022-09-26T13:25:29.544Z,1.10
2022-09-26T13:28:16.639Z,2.13
2022-09-26T13:31:46.576Z,0.70
2022-09-26T13:34:38.968Z,1.05
2022-09-26T13:37:29.123Z,3.67
2022-09-26T13:40:18.143Z,1.85
2022-09-26T13:43:02.814Z,2.22
2022-09-26T13:46:28.500Z,0.50
2022-09-26T13:54:05.635Z,2.50
2022-09-26T13:56:38.889Z,2.55
2022-09-26T13:59:44.241Z,1.65
2022-09-26T14:02:29.367Z,2.00
2022-09-26T14:05:03.405Z,1.15
2022-09-26T14:08:03.911Z,1.35
2022-09-26T14:24:48.731Z,2.33
2022-09-26T14:30:30.845Z,1.58
2022-09-26T14:33:10.219Z,2.70
2022-09-26T14:35:39.500Z,0.45
2022-09-26T14:38:23.592Z,1.65
2022-09-26T14:41:01.137Z,2.35
2022-09-26T14:43:30.425Z,1.15
2022-09-26T14:46:05.457Z,2.55
2022-09-26T14:48:41.985Z,2.00
2022-09-26T14:51:15.806Z,1.25
2022-09-26T14:54:21.756Z,3.13
2022-09-26T14:57:02.787Z,3.08
2022-09-26T15:02:44.230Z,2.30
2022-09-26T15:05:25.771Z,2.35
2022-09-26T15:07:55.554Z,3.00
2022-09-26T15:10:37.954Z,5.50
2022-09-26T15:13:23.182Z,1.85
2022-09-26T15:16:22.531Z,2.30
2022-09-26T15:19:06.832Z,6.93
2022-09-26T15:21:48.742Z,1.42
2022-09-26T15:24:36.820Z,1.25
2022-09-26T15:27:30.284Z,1.85
2022-09-26T15:30:14.631Z,3.47
2022-09-26T15:32:49.829Z,2.10
2022-09-26T15:35:18.054Z,1.17
2022-09-26T15:37:46.735Z,2.08
2022-09-26T15:40:23.608Z,2.10
2022-09-26T15:43:12.300Z,4.50
2022-09-26T15:45:48.907Z,2.00
2022-09-26T15:48:26.896Z,1.63
2022-09-26T15:51:13.921Z,2.35
2022-09-26T15:53:43.744Z,4.72
2022-09-26T15:56:43.750Z,1.67
2022-09-26T15:59:40.003Z,4.47
2022-09-26T16:02:31.074Z,2.45
2022-09-26T16:04:59.854Z,2.38
2022-09-26T16:07:32.499Z,4.38
2022-09-26T16:10:00.081Z,4.55
2022-09-26T16:12:31.928Z,3.70
2022-09-26T16:15:14.311Z,1.27
2022-09-26T16:17:49.570Z,4.10
2022-09-26T16:20:17.021Z,5.60
2022-09-26T16:22:51.265Z,4.60
2022-09-26T16:25:55.523Z,3.88
2022-09-26T16:28:42.719Z,4.22
2022-09-26T16:31:24.424Z,4.43
2022-09-26T16:33:58.511Z,4.70
2022-09-26T16:36:35.827Z,5.28
2022-09-26T16:39:08.912Z,3.42
2022-09-26T16:42:02.839Z,2.45
2022-09-26T16:44:53.092Z,3.63
2022-09-26T16:47:49.549Z,5.82
2022-09-26T16:50:27.490Z,4.50
2022-09-26T16:52:56.072Z,4.65
2022-09-26T16:55:27.174Z,5.72
2022-09-26T16:58:01.187Z,4.30
2022-09-26T17:00:52.596Z,4.72
2022-09-26T17:03:31.152Z,3.85
2022-09-26T17:06:00.262Z,4.88
2022-09-26T17:08:28.630Z,2.92
2022-09-26T17:11:02.070Z,5.07
2022-09-26T17:13:33.875Z,4.30
2022-09-26T17:16:03.551Z,4.57
2022-09-26T17:18:33.234Z,3.47
2022-09-26T17:21:01.701Z,4.32
2022-09-26T17:23:41.479Z,5.70
2022-09-26T17:26:21.741Z,5.80
2022-09-26T17:28:51.506Z,4.75
2022-09-26T17:31:20.182Z,6.60
2022-09-26T17:33:55.354Z,4.63
2022-09-26T17:36:28.072Z,3.55
2022-09-26T17:38:59.363Z,3.88
2022-09-26T17:41:32.687Z,6.15
2022-09-26T17:44:00.775Z,5.32
2022-09-26T17:46:29.920Z,5.35
2022-09-26T17:48:57.967Z,6.45
2022-09-26T17:51:25.507Z,6.80
2022-09-26T17:53:52.923Z,4.00
2022-09-26T17:56:20.686Z,4.25
2022-09-26T17:58:52.124Z,6.22
2022-09-26T18:01:33.508Z,3.88
2022-09-26T18:04:09.238Z,4.15
2022-09-26T18:06:36.955Z,5.10
2022-09-26T18:09:10.242Z,5.75
2022-09-26T18:11:38.986Z,10.23
2022-09-26T18:14:08.011Z,6.78
2022-09-26T18:16:35.299Z,7.90
2022-09-26T18:19:07.540Z,9.63
2022-09-26T18:21:35.820Z,5.50
2022-09-26T18:24:06.742Z,7.00
2022-09-26T18:26:47.160Z,3.88
2022-09-26T18:29:30.279Z,12.63
2022-09-26T18:31:59.833Z,7.75
2022-09-26T18:34:27.151Z,8.00
2022-09-26T18:36:59.979Z,6.20
2022-09-26T18:39:28.934Z,5.65
2022-09-26T18:42:06.079Z,7.53
2022-09-26T18:44:35.156Z,6.07
2022-09-26T18:47:08.070Z,4.60
2022-09-26T18:49:37.817Z,5.32
2022-09-26T18:52:23.267Z,4.32
2022-09-26T18:55:13.084Z,5.88
2022-09-26T18:57:58.762Z,4.03
2022-09-26T19:00:28.672Z,6.65
2022-09-26T19:02:57.138Z,4.20
2022-09-26T19:05:25.698Z,4.53
2022-09-26T19:07:55.583Z,6.90
2022-09-26T19:10:23.006Z,7.72
2022-09-26T19:12:50.120Z,4.38
2022-09-26T19:15:17.730Z,6.47
2022-09-26T19:17:45.038Z,5.25
2022-09-26T19:20:12.031Z,5.05
2022-09-26T19:22:39.567Z,6.53
2022-09-26T19:25:09.612Z,4.70
2022-09-26T19:27:48.454Z,5.38
2022-09-26T19:30:21.445Z,5.10
2022-09-26T19:32:53.856Z,6.13
2022-09-26T19:35:35.952Z,6.13
2022-09-26T19:38:25.587Z,6.35
2022-09-26T19:40:53.902Z,6.72
2022-09-26T19:43:22.746Z,9.68
2022-09-26T19:45:54.537Z,5.43
2022-09-26T19:48:23.615Z,4.25
2022-09-26T19:50:52.596Z,5.55
2022-09-26T19:53:23.591Z,4.72
2022-09-26T19:55:57.383Z,8.00
2022-09-26T19:58:28.131Z,4.35
2022-09-26T20:01:00.361Z,5.35
2022-09-26T20:06:23.083Z,5.38
2022-09-26T20:09:00.445Z,6.95
2022-09-26T20:11:28.574Z,8.13
2022-09-26T20:17:25.963Z,8.30
2022-09-26T20:19:58.545Z,4.43
2022-09-26T20:22:26.310Z,11.98
2022-09-26T20:24:55.489Z,7.10
2022-09-26T20:27:28.703Z,9.57
2022-09-26T20:30:15.639Z,12.20
2022-09-26T20:32:42.872Z,9.82
2022-09-26T20:35:16.435Z,12.07
2022-09-26T20:37:47.266Z,11.38
2022-09-26T20:40:24.176Z,11.23
2022-09-26T20:42:59.824Z,9.15
2022-09-26T20:45:38.659Z,7.93
2022-09-26T20:48:27.644Z,8.07
2022-09-26T20:50:55.857Z,12.15
2022-09-26T20:53:24.887Z,9.10
2022-09-26T20:55:53.938Z,9.13
2022-09-26T20:58:22.251Z,6.57
2022-09-26T21:00:50.352Z,9.45
2022-09-26T21:03:21.837Z,7.93
2022-09-26T21:05:48.866Z,11.52
2022-09-26T21:08:33.457Z,7.75
2022-09-26T21:11:02.165Z,9.18
2022-09-26T21:13:29.378Z,6.25
2022-09-26T21:16:02.564Z,8.43
2022-09-26T21:18:33.266Z,8.45
2022-09-26T21:21:08.218Z,7.88
2022-09-26T21:23:58.964Z,14.55
2022-09-26T21:26:36.920Z,6.40
2022-09-26T21:29:20.181Z,8.13
2022-09-26T21:32:14.367Z,9.50
2022-09-26T21:35:08.272Z,6.20
2022-09-26T21:37:52.186Z,7.63
2022-09-26T21:40:27.702Z,7.20
2022-09-26T21:43:07.163Z,6.40
2022-09-26T21:45:36.867Z,6.90
2022-09-26T21:48:04.277Z,5.88
2022-09-26T21:50:31.673Z,4.80
2022-09-26T21:53:47.170Z,12.38
2022-09-26T21:56:55.677Z,10.98
2022-09-26T22:16:45.242Z,6.70
2022-09-26T22:19:25.052Z,10.40
2022-09-26T22:22:36.704Z,7.68
2022-09-26T22:25:32.009Z,11.48
2022-09-26T22:32:24.535Z,8.38
2022-09-26T22:34:51.906Z,9.48
2022-09-26T22:37:19.808Z,10.40
2022-09-26T22:39:46.843Z,6.95
2022-09-26T22:42:13.985Z,7.85
2022-09-26T22:45:26.814Z,9.80
2022-09-26T22:49:22.739Z,6.55
2022-09-26T23:00:44.898Z,6.50
2022-09-26T23:03:12.102Z,9.70
2022-09-26T23:05:43.579Z,5.00
2022-09-26T23:08:10.587Z,5.13
2022-09-26T23:10:37.733Z,5.35
2022-09-26T23:13:05.007Z,7.95
2022-09-26T23:15:32.423Z,3.67
2022-09-26T23:17:59.470Z,3.97
2022-09-26T23:20:26.472Z,3.10
2022-09-26T23:22:53.396Z,3.30
2022-09-26T23:25:20.355Z,4.10
2022-09-26T23:27:47.356Z,2.15
2022-09-26T23:30:15.021Z,3.40
2022-09-26T23:32:41.983Z,2.45
2022-09-26T23:35:10.793Z,5.30
2022-09-26T23:37:39.721Z,1.85
2022-09-26T23:40:08.037Z,2.50
2022-09-26T23:42:35.160Z,2.35
2022-09-26T23:45:02.155Z,2.15
2022-09-26T23:47:29.104Z,2.40
2022-09-26T23:49:56.889Z,2.88
2022-09-26T23:52:23.987Z,2.03
2022-09-26T23:54:50.950Z,2.92
2022-09-26T23:57:17.953Z,4.07
2022-09-26T23:59:44.985Z,2.35
